sensor_id;sensor_type;location;lat;lon;timestamp;pressure;altitude;pressure_sealevel;temperature;humidity
83363;BME280;73275;50.882;5.984;2024-01-30T00:00:10;101489.06;;;9.64;73.89
83363;BME280;73275;50.882;5.984;2024-01-30T00:02:36;101487.84;;;9.61;73.59
83363;BME280;73275;50.882;5.984;2024-01-30T00:05:09;101492.25;;;9.69;73.62
83363;BME280;73275;50.882;5.984;2024-01-30T00:07:34;101490.47;;;9.73;73.46
83363;BME280;73275;50.882;5.984;2024-01-30T00:10:03;101488.06;;;9.68;73.84
83363;BME280;73275;50.882;5.984;2024-01-30T00:12:28;101488.72;;;9.65;73.78
83363;BME280;73275;50.882;5.984;2024-01-30T00:14:54;101484.28;;;9.69;73.27
83363;BME280;73275;50.882;5.984;2024-01-30T00:17:19;101473.41;;;9.74;73.22
83363;BME280;73275;50.882;5.984;2024-01-30T00:19:46;101478.63;;;9.71;73.49
83363;BME280;73275;50.882;5.984;2024-01-30T00:22:14;101475.59;;;9.72;72.98
83363;BME280;73275;50.882;5.984;2024-01-30T00:24:40;101473.31;;;9.71;73.30
83363;BME280;73275;50.882;5.984;2024-01-30T00:27:08;101472.41;;;9.67;73.00
83363;BME280;73275;50.882;5.984;2024-01-30T00:29:34;101470.97;;;9.69;73.96
83363;BME280;73275;50.882;5.984;2024-01-30T00:31:59;101475.00;;;9.63;73.85
83363;BME280;73275;50.882;5.984;2024-01-30T00:34:25;101472.66;;;9.62;73.88
83363;BME280;73275;50.882;5.984;2024-01-30T00:36:54;101467.00;;;9.63;74.20
83363;BME280;73275;50.882;5.984;2024-01-30T00:39:19;101471.31;;;9.68;73.63
83363;BME280;73275;50.882;5.984;2024-01-30T00:41:45;101467.28;;;9.74;73.10
83363;BME280;73275;50.882;5.984;2024-01-30T00:44:11;101467.09;;;9.67;73.38
83363;BME280;73275;50.882;5.984;2024-01-30T00:46:36;101465.97;;;9.68;73.60
83363;BME280;73275;50.882;5.984;2024-01-30T00:49:01;101473.31;;;9.71;73.09
83363;BME280;73275;50.882;5.984;2024-01-30T00:51:27;101471.41;;;9.71;73.98
83363;BME280;73275;50.882;5.984;2024-01-30T00:53:55;101467.19;;;9.70;73.21
83363;BME280;73275;50.882;5.984;2024-01-30T00:56:20;101477.84;;;9.70;73.60
83363;BME280;73275;50.882;5.984;2024-01-30T00:58:46;101464.34;;;9.63;74.00
83363;BME280;73275;50.882;5.984;2024-01-30T01:01:12;101462.69;;;9.59;73.89
83363;BME280;73275;50.882;5.984;2024-01-30T01:03:38;101461.38;;;9.53;74.03
83363;BME280;73275;50.882;5.984;2024-01-30T01:06:06;101466.59;;;9.49;74.05
83363;BME280;73275;50.882;5.984;2024-01-30T01:08:31;101464.38;;;9.39;74.42
83363;BME280;73275;50.882;5.984;2024-01-30T01:10:56;101460.53;;;9.37;74.50
83363;BME280;73275;50.882;5.984;2024-01-30T01:13:22;101460.75;;;9.32;74.93
83363;BME280;73275;50.882;5.984;2024-01-30T01:15:47;101457.88;;;9.25;74.86
83363;BME280;73275;50.882;5.984;2024-01-30T01:18:13;101459.53;;;9.29;74.73
83363;BME280;73275;50.882;5.984;2024-01-30T01:20:41;101460.31;;;9.30;74.93
83363;BME280;73275;50.882;5.984;2024-01-30T01:23:14;101461.44;;;9.29;75.43
83363;BME280;73275;50.882;5.984;2024-01-30T01:25:39;101455.09;;;9.33;74.79
83363;BME280;73275;50.882;5.984;2024-01-30T01:28:08;101454.44;;;9.36;74.92
83363;BME280;73275;50.882;5.984;2024-01-30T01:30:34;101458.66;;;9.37;74.94
83363;BME280;73275;50.882;5.984;2024-01-30T01:33:00;101459.06;;;9.39;74.37
83363;BME280;73275;50.882;5.984;2024-01-30T01:35:30;101454.78;;;9.35;74.91
83363;BME280;73275;50.882;5.984;2024-01-30T01:38:01;101457.75;;;9.33;74.57
83363;BME280;73275;50.882;5.984;2024-01-30T01:40:27;101454.44;;;9.36;74.80
83363;BME280;73275;50.882;5.984;2024-01-30T01:42:54;101457.41;;;9.47;74.23
83363;BME280;73275;50.882;5.984;2024-01-30T01:45:20;101453.38;;;9.53;74.40
83363;BME280;73275;50.882;5.984;2024-01-30T01:47:47;101453.84;;;9.55;73.94
83363;BME280;73275;50.882;5.984;2024-01-30T01:50:16;101443.28;;;9.58;73.90
83363;BME280;73275;50.882;5.984;2024-01-30T01:52:47;101447.41;;;9.56;74.11
83363;BME280;73275;50.882;5.984;2024-01-30T01:55:13;101444.84;;;9.59;74.23
83363;BME280;73275;50.882;5.984;2024-01-30T01:57:40;101442.28;;;9.63;73.92
83363;BME280;73275;50.882;5.984;2024-01-30T02:00:07;101441.47;;;9.62;73.82
83363;BME280;73275;50.882;5.984;2024-01-30T02:02:36;101446.81;;;9.62;73.96
83363;BME280;73275;50.882;5.984;2024-01-30T02:05:02;101441.88;;;9.76;73.87
83363;BME280;73275;50.882;5.984;2024-01-30T02:07:28;101434.88;;;9.84;73.17
83363;BME280;73275;50.882;5.984;2024-01-30T02:09:54;101438.84;;;9.90;73.20
83363;BME280;73275;50.882;5.984;2024-01-30T02:12:20;101441.16;;;9.91;73.08
83363;BME280;73275;50.882;5.984;2024-01-30T02:14:49;101426.81;;;9.96;72.85
83363;BME280;73275;50.882;5.984;2024-01-30T02:17:15;101429.94;;;9.98;72.30
83363;BME280;73275;50.882;5.984;2024-01-30T02:19:41;101427.94;;;9.95;73.22
83363;BME280;73275;50.882;5.984;2024-01-30T02:22:07;101430.94;;;9.93;73.06
83363;BME280;73275;50.882;5.984;2024-01-30T02:24:33;101430.94;;;9.93;73.31
83363;BME280;73275;50.882;5.984;2024-01-30T02:26:58;101428.19;;;9.90;73.64
83363;BME280;73275;50.882;5.984;2024-01-30T02:29:24;101427.53;;;9.93;73.34
83363;BME280;73275;50.882;5.984;2024-01-30T02:31:49;101426.41;;;9.94;72.68
83363;BME280;73275;50.882;5.984;2024-01-30T02:34:14;101425.28;;;9.95;73.45
83363;BME280;73275;50.882;5.984;2024-01-30T02:36:43;101419.16;;;9.94;73.43
83363;BME280;73275;50.882;5.984;2024-01-30T02:39:09;101424.69;;;10.01;73.24
83363;BME280;73275;50.882;5.984;2024-01-30T02:41:35;101420.28;;;10.05;72.58
83363;BME280;73275;50.882;5.984;2024-01-30T02:44:00;101425.34;;;10.10;72.38
83363;BME280;73275;50.882;5.984;2024-01-30T02:46:26;101419.16;;;10.06;72.92
83363;BME280;73275;50.882;5.984;2024-01-30T02:48:51;101414.69;;;10.10;72.54
83363;BME280;73275;50.882;5.984;2024-01-30T02:51:17;101409.81;;;10.12;72.90
83363;BME280;73275;50.882;5.984;2024-01-30T02:53:42;101405.84;;;10.06;72.99
83363;BME280;73275;50.882;5.984;2024-01-30T02:56:08;101409.72;;;10.09;72.65
83363;BME280;73275;50.882;5.984;2024-01-30T02:58:35;101408.94;;;10.08;72.63
83363;BME280;73275;50.882;5.984;2024-01-30T03:01:02;101412.63;;;10.04;72.93
83363;BME280;73275;50.882;5.984;2024-01-30T03:03:27;101408.25;;;10.11;72.36
83363;BME280;73275;50.882;5.984;2024-01-30T03:05:53;101403.59;;;10.08;72.33
83363;BME280;73275;50.882;5.984;2024-01-30T03:08:18;101402.16;;;10.11;72.67
83363;BME280;73275;50.882;5.984;2024-01-30T03:10:44;101413.91;;;10.10;72.53
83363;BME280;73275;50.882;5.984;2024-01-30T03:13:09;101417.34;;;10.10;73.02
83363;BME280;73275;50.882;5.984;2024-01-30T03:15:34;101408.59;;;10.10;72.98
83363;BME280;73275;50.882;5.984;2024-01-30T03:18:00;101403.34;;;10.13;73.23
83363;BME280;73275;50.882;5.984;2024-01-30T03:20:28;101405.94;;;10.10;73.01
83363;BME280;73275;50.882;5.984;2024-01-30T03:22:54;101410.13;;;10.11;73.00
83363;BME280;73275;50.882;5.984;2024-01-30T03:25:20;101401.81;;;10.12;72.57
83363;BME280;73275;50.882;5.984;2024-01-30T03:27:45;101394.00;;;10.19;72.65
83363;BME280;73275;50.882;5.984;2024-01-30T03:30:11;101398.66;;;10.22;72.28
83363;BME280;73275;50.882;5.984;2024-01-30T03:32:36;101394.31;;;10.18;72.71
83363;BME280;73275;50.882;5.984;2024-01-30T03:35:02;101396.66;;;10.19;73.07
83363;BME280;73275;50.882;5.984;2024-01-30T03:37:28;101392.03;;;10.16;73.33
83363;BME280;73275;50.882;5.984;2024-01-30T03:39:53;101383.88;;;10.25;73.01
83363;BME280;73275;50.882;5.984;2024-01-30T03:42:18;101391.94;;;10.28;73.06
83363;BME280;73275;50.882;5.984;2024-01-30T03:44:44;101388.41;;;10.24;73.03
83363;BME280;73275;50.882;5.984;2024-01-30T03:47:09;101391.50;;;10.26;73.28
83363;BME280;73275;50.882;5.984;2024-01-30T03:49:35;101391.94;;;10.28;72.96
83363;BME280;73275;50.882;5.984;2024-01-30T03:52:00;101395.28;;;10.25;73.35
83363;BME280;73275;50.882;5.984;2024-01-30T03:54:25;101394.59;;;10.28;73.43
83363;BME280;73275;50.882;5.984;2024-01-30T03:56:51;101393.16;;;10.31;72.91
83363;BME280;73275;50.882;5.984;2024-01-30T03:59:16;101392.81;;;10.32;73.59
83363;BME280;73275;50.882;5.984;2024-01-30T04:01:47;101393.22;;;10.34;73.33
83363;BME280;73275;50.882;5.984;2024-01-30T04:04:12;101381.91;;;10.37;73.17
83363;BME280;73275;50.882;5.984;2024-01-30T04:06:38;101375.28;;;10.47;73.23
83363;BME280;73275;50.882;5.984;2024-01-30T04:09:03;101387.13;;;10.49;73.47
83363;BME280;73275;50.882;5.984;2024-01-30T04:11:29;101384.03;;;10.47;73.17
83363;BME280;73275;50.882;5.984;2024-01-30T04:13:54;101380.94;;;10.45;73.33
83363;BME280;73275;50.882;5.984;2024-01-30T04:16:20;101376.28;;;10.42;73.51
83363;BME280;73275;50.882;5.984;2024-01-30T04:18:47;101375.59;;;10.45;73.81
83363;BME280;73275;50.882;5.984;2024-01-30T04:21:12;101375.00;;;10.52;73.06
83363;BME280;73275;50.882;5.984;2024-01-30T04:23:39;101373.34;;;10.47;73.16
83363;BME280;73275;50.882;5.984;2024-01-30T04:26:05;101367.63;;;10.45;74.09
83363;BME280;73275;50.882;5.984;2024-01-30T04:28:30;101380.69;;;10.50;73.23
83363;BME280;73275;50.882;5.984;2024-01-30T04:30:56;101368.97;;;10.55;73.32
83363;BME280;73275;50.882;5.984;2024-01-30T04:33:21;101364.59;;;10.62;72.47
83363;BME280;73275;50.882;5.984;2024-01-30T04:35:46;101374.47;;;10.62;72.94
83363;BME280;73275;50.882;5.984;2024-01-30T04:38:12;101371.03;;;10.61;73.13
83363;BME280;73275;50.882;5.984;2024-01-30T04:40:37;101362.63;;;10.59;72.77
83363;BME280;73275;50.882;5.984;2024-01-30T04:43:05;101364.25;;;10.64;73.17
83363;BME280;73275;50.882;5.984;2024-01-30T04:45:31;101369.22;;;10.65;72.76
83363;BME280;73275;50.882;5.984;2024-01-30T04:47:56;101371.09;;;10.65;72.87
83363;BME280;73275;50.882;5.984;2024-01-30T04:50:23;101369.22;;;10.65;73.06
83363;BME280;73275;50.882;5.984;2024-01-30T04:52:48;101373.44;;;10.66;73.23
83363;BME280;73275;50.882;5.984;2024-01-30T04:55:14;101375.75;;;10.68;73.05
83363;BME280;73275;50.882;5.984;2024-01-30T04:57:39;101373.03;;;10.64;72.98
83363;BME280;73275;50.882;5.984;2024-01-30T05:00:05;101371.03;;;10.61;73.42
83363;BME280;73275;50.882;5.984;2024-01-30T05:02:31;101371.09;;;10.65;73.48
83363;BME280;73275;50.882;5.984;2024-01-30T05:04:57;101368.03;;;10.63;73.51
83363;BME280;73275;50.882;5.984;2024-01-30T05:07:24;101366.91;;;10.64;74.08
83363;BME280;73275;50.882;5.984;2024-01-30T05:09:50;101365.09;;;10.68;73.61
83363;BME280;73275;50.882;5.984;2024-01-30T05:12:15;101371.44;;;10.63;74.10
83363;BME280;73275;50.882;5.984;2024-01-30T05:14:43;101377.56;;;10.64;73.85
83363;BME280;73275;50.882;5.984;2024-01-30T05:17:11;101374.91;;;10.64;74.05
83363;BME280;73275;50.882;5.984;2024-01-30T05:19:41;101372.66;;;10.66;74.12
83363;BME280;73275;50.882;5.984;2024-01-30T05:22:06;101363.13;;;10.65;73.95
83363;BME280;73275;50.882;5.984;2024-01-30T05:24:32;101370.69;;;10.63;73.82
83363;BME280;73275;50.882;5.984;2024-01-30T05:26:57;101365.69;;;10.61;74.16
83363;BME280;73275;50.882;5.984;2024-01-30T05:29:23;101358.38;;;10.58;74.13
83363;BME280;73275;50.882;5.984;2024-01-30T05:31:49;101356.28;;;10.48;74.26
83363;BME280;73275;50.882;5.984;2024-01-30T05:34:15;101354.97;;;10.42;74.55
83363;BME280;73275;50.882;5.984;2024-01-30T05:36:40;101351.97;;;10.44;74.85
83363;BME280;73275;50.882;5.984;2024-01-30T05:39:06;101350.44;;;10.43;74.77
83363;BME280;73275;50.882;5.984;2024-01-30T05:41:32;101355.84;;;10.46;74.72
83363;BME280;73275;50.882;5.984;2024-01-30T05:43:57;101355.16;;;10.49;74.41
83363;BME280;73275;50.882;5.984;2024-01-30T05:46:23;101360.56;;;10.53;74.75
83363;BME280;73275;50.882;5.984;2024-01-30T05:48:49;101358.56;;;10.50;74.47
83363;BME280;73275;50.882;5.984;2024-01-30T05:51:14;101357.63;;;10.58;74.79
83363;BME280;73275;50.882;5.984;2024-01-30T05:53:39;101359.09;;;10.55;74.43
83363;BME280;73275;50.882;5.984;2024-01-30T05:56:05;101352.22;;;10.54;74.46
83363;BME280;73275;50.882;5.984;2024-01-30T05:58:35;101354.28;;;10.45;74.80
83363;BME280;73275;50.882;5.984;2024-01-30T06:01:06;101354.97;;;10.42;75.30
83363;BME280;73275;50.882;5.984;2024-01-30T06:03:33;101356.34;;;10.36;75.25
83363;BME280;73275;50.882;5.984;2024-01-30T06:05:58;101348.09;;;10.41;75.24
83363;BME280;73275;50.882;5.984;2024-01-30T06:08:24;101352.22;;;10.39;75.20
83363;BME280;73275;50.882;5.984;2024-01-30T06:10:49;101358.34;;;10.39;76.02
83363;BME280;73275;50.882;5.984;2024-01-30T06:13:15;101348.63;;;10.47;75.36
83363;BME280;73275;50.882;5.984;2024-01-30T06:15:40;101353.16;;;10.46;75.49
83363;BME280;73275;50.882;5.984;2024-01-30T06:18:05;101355.56;;;10.51;74.96
83363;BME280;73275;50.882;5.984;2024-01-30T06:20:31;101342.97;;;10.48;74.77
83363;BME280;73275;50.882;5.984;2024-01-30T06:22:56;101362.72;;;10.47;75.13
83363;BME280;73275;50.882;5.984;2024-01-30T06:25:22;101353.34;;;10.53;75.18
83363;BME280;73275;50.882;5.984;2024-01-30T06:27:50;101356.16;;;10.60;74.40
83363;BME280;73275;50.882;5.984;2024-01-30T06:30:20;101349.63;;;10.58;74.99
83363;BME280;73275;50.882;5.984;2024-01-30T06:32:49;101348.03;;;10.53;75.95
83363;BME280;73275;50.882;5.984;2024-01-30T06:35:22;101355.41;;;10.44;76.34
83363;BME280;73275;50.882;5.984;2024-01-30T06:37:48;101351.63;;;10.45;75.84
83363;BME280;73275;50.882;5.984;2024-01-30T06:40:19;101349.38;;;10.47;76.48
83363;BME280;73275;50.882;5.984;2024-01-30T06:42:45;101348.19;;;10.45;75.71
83363;BME280;73275;50.882;5.984;2024-01-30T06:45:13;101353.50;;;10.45;75.56
83363;BME280;73275;50.882;5.984;2024-01-30T06:47:46;101347.84;;;10.46;75.93
83363;BME280;73275;50.882;5.984;2024-01-30T06:50:12;101348.28;;;10.48;75.63
83363;BME280;73275;50.882;5.984;2024-01-30T06:52:40;101352.91;;;10.51;75.56
83363;BME280;73275;50.882;5.984;2024-01-30T06:55:05;101350.50;;;10.46;75.59
83363;BME280;73275;50.882;5.984;2024-01-30T06:57:31;101350.09;;;10.44;76.05
83363;BME280;73275;50.882;5.984;2024-01-30T06:59:57;101358.25;;;10.51;76.05
83363;BME280;73275;50.882;5.984;2024-01-30T07:02:22;101361.16;;;10.62;75.62
83363;BME280;73275;50.882;5.984;2024-01-30T07:04:48;101368.03;;;10.63;75.69
83363;BME280;73275;50.882;5.984;2024-01-30T07:07:14;101369.84;;;10.59;76.10
83363;BME280;73275;50.882;5.984;2024-01-30T07:09:40;101377.84;;;10.59;75.58
83363;BME280;73275;50.882;5.984;2024-01-30T07:12:06;101374.38;;;10.58;75.89
83363;BME280;73275;50.882;5.984;2024-01-30T07:14:32;101373.34;;;10.63;75.73
83363;BME280;73275;50.882;5.984;2024-01-30T07:16:59;101373.69;;;10.61;75.59
83363;BME280;73275;50.882;5.984;2024-01-30T07:25:41;101370.09;;;10.69;75.26
83363;BME280;73275;50.882;5.984;2024-01-30T07:28:26;101394.56;;;10.75;75.07
83363;BME280;73275;50.882;5.984;2024-01-30T07:31:19;101390.97;;;10.67;75.71
83363;BME280;73275;50.882;5.984;2024-01-30T08:10:20;101434.28;;;10.80;74.90
83363;BME280;73275;50.882;5.984;2024-01-30T08:42:25;101467.56;;;11.01;74.42
83363;BME280;73275;50.882;5.984;2024-01-30T08:45:10;101472.13;;;11.01;73.72
83363;BME280;73275;50.882;5.984;2024-01-30T08:54:20;101475.00;;;11.11;73.28
83363;BME280;73275;50.882;5.984;2024-01-30T08:56:46;101475.44;;;11.13;73.24
83363;BME280;73275;50.882;5.984;2024-01-30T08:59:11;101494.34;;;11.24;72.88
83363;BME280;73275;50.882;5.984;2024-01-30T09:01:39;101489.47;;;11.26;73.01
83363;BME280;73275;50.882;5.984;2024-01-30T09:04:05;101500.22;;;11.29;72.78
83363;BME280;73275;50.882;5.984;2024-01-30T09:06:30;101499.50;;;11.32;72.75
83363;BME280;73275;50.882;5.984;2024-01-30T09:08:56;101482.72;;;11.32;73.07
83363;BME280;73275;50.882;5.984;2024-01-30T09:11:23;101494.94;;;11.33;73.54
83363;BME280;73275;50.882;5.984;2024-01-30T09:13:48;101497.94;;;11.31;73.03
83363;BME280;73275;50.882;5.984;2024-01-30T09:16:14;101499.88;;;11.31;73.22
83363;BME280;73275;50.882;5.984;2024-01-30T09:18:41;101498.75;;;11.32;73.38
83363;BME280;73275;50.882;5.984;2024-01-30T09:21:06;101500.53;;;11.28;73.81
83363;BME280;73275;50.882;5.984;2024-01-30T09:23:32;101509.06;;;11.33;73.48
83363;BME280;73275;50.882;5.984;2024-01-30T09:25:58;101518.63;;;11.34;73.07
83363;BME280;73275;50.882;5.984;2024-01-30T09:28:24;101511.09;;;11.40;73.72
83363;BME280;73275;50.882;5.984;2024-01-30T09:30:49;101508.59;;;11.47;73.29
83363;BME280;73275;50.882;5.984;2024-01-30T09:33:15;101524.34;;;11.52;72.99
83363;BME280;73275;50.882;5.984;2024-01-30T09:35:40;101515.28;;;11.56;72.52
83363;BME280;73275;50.882;5.984;2024-01-30T09:38:05;101522.59;;;11.59;72.65
83363;BME280;73275;50.882;5.984;2024-01-30T09:40:31;101531.81;;;11.62;72.29
83363;BME280;73275;50.882;5.984;2024-01-30T09:42:58;101527.59;;;11.61;72.47
83363;BME280;73275;50.882;5.984;2024-01-30T09:45:25;101527.69;;;11.64;72.23
83363;BME280;73275;50.882;5.984;2024-01-30T09:47:52;101528.13;;;11.66;71.75
83363;BME280;73275;50.882;5.984;2024-01-30T09:50:18;101522.72;;;11.63;72.08
83363;BME280;73275;50.882;5.984;2024-01-30T09:52:44;101525.28;;;11.59;72.49
83363;BME280;73275;50.882;5.984;2024-01-30T09:55:10;101529.84;;;11.59;72.44
83363;BME280;73275;50.882;5.984;2024-01-30T09:57:36;101528.72;;;11.60;72.71
83363;BME280;73275;50.882;5.984;2024-01-30T10:00:05;101518.47;;;11.62;71.70
83363;BME280;73275;50.882;5.984;2024-01-30T10:02:34;101526.56;;;11.65;71.95
83363;BME280;73275;50.882;5.984;2024-01-30T10:05:00;101529.25;;;11.65;72.40
83363;BME280;73275;50.882;5.984;2024-01-30T10:07:26;101537.66;;;11.67;72.32
83363;BME280;73275;50.882;5.984;2024-01-30T10:09:53;101536.19;;;11.70;72.04
83363;BME280;73275;50.882;5.984;2024-01-30T10:12:18;101538.94;;;11.73;72.35
83363;BME280;73275;50.882;5.984;2024-01-30T10:14:44;101533.53;;;11.70;72.08
83363;BME280;73275;50.882;5.984;2024-01-30T10:17:10;101534.38;;;11.74;72.47
83363;BME280;73275;50.882;5.984;2024-01-30T10:19:37;101533.19;;;11.71;71.97
83363;BME280;73275;50.882;5.984;2024-01-30T10:22:03;101526.38;;;11.74;72.81
83363;BME280;73275;50.882;5.984;2024-01-30T10:24:29;101527.06;;;11.71;72.63
83363;BME280;73275;50.882;5.984;2024-01-30T10:26:55;101523.91;;;11.65;73.30
83363;BME280;73275;50.882;5.984;2024-01-30T10:29:21;101535.00;;;11.67;73.26
83363;BME280;73275;50.882;5.984;2024-01-30T10:32:00;101540.69;;;11.66;73.43
83363;BME280;73275;50.882;5.984;2024-01-30T10:34:25;101541.47;;;11.66;73.38
83363;BME280;73275;50.882;5.984;2024-01-30T10:37:07;101542.66;;;11.69;73.65
83363;BME280;73275;50.882;5.984;2024-01-30T10:39:38;101546.69;;;11.78;73.08
83363;BME280;73275;50.882;5.984;2024-01-30T10:42:05;101538.16;;;11.73;73.08
83363;BME280;73275;50.882;5.984;2024-01-30T10:44:36;101543.97;;;11.59;73.75
83363;BME280;73275;50.882;5.984;2024-01-30T10:47:06;101538.88;;;11.54;73.65
83363;BME280;73275;50.882;5.984;2024-01-30T10:49:37;101542.31;;;11.55;74.00
83363;BME280;73275;50.882;5.984;2024-01-30T10:52:04;101545.16;;;11.62;73.85
83363;BME280;73275;50.882;5.984;2024-01-30T10:54:31;101548.75;;;11.69;73.74
83363;BME280;73275;50.882;5.984;2024-01-30T10:57:00;101552.06;;;11.63;74.34
83363;BME280;73275;50.882;5.984;2024-01-30T10:59:28;101547.84;;;11.62;74.48
83363;BME280;73275;50.882;5.984;2024-01-30T11:01:53;101544.06;;;11.63;74.71
83363;BME280;73275;50.882;5.984;2024-01-30T11:04:19;101549.19;;;11.56;74.85
83363;BME280;73275;50.882;5.984;2024-01-30T11:06:45;101544.56;;;11.53;75.30
83363;BME280;73275;50.882;5.984;2024-01-30T11:09:11;101538.03;;;11.50;75.19
83363;BME280;73275;50.882;5.984;2024-01-30T11:11:57;101548.19;;;11.60;75.59
83363;BME280;73275;50.882;5.984;2024-01-30T11:14:25;101551.97;;;11.59;75.40
83363;BME280;73275;50.882;5.984;2024-01-30T11:16:51;101550.66;;;11.53;75.15
83363;BME280;73275;50.882;5.984;2024-01-30T11:19:22;101554.88;;;11.54;74.96
83363;BME280;73275;50.882;5.984;2024-01-30T11:21:50;101560.59;;;11.53;75.58
83363;BME280;73275;50.882;5.984;2024-01-30T11:24:19;101552.41;;;11.46;76.25
83363;BME280;73275;50.882;5.984;2024-01-30T11:26:48;101558.44;;;11.43;76.17
83363;BME280;73275;50.882;5.984;2024-01-30T11:29:14;101566.72;;;11.38;75.96
83363;BME280;73275;50.882;5.984;2024-01-30T11:31:40;101561.31;;;11.34;76.48
83363;BME280;73275;50.882;5.984;2024-01-30T11:34:06;101561.13;;;11.27;76.36
83363;BME280;73275;50.882;5.984;2024-01-30T11:36:31;101563.44;;;11.29;77.12
83363;BME280;73275;50.882;5.984;2024-01-30T11:39:00;101559.56;;;11.26;76.92
83363;BME280;73275;50.882;5.984;2024-01-30T11:41:25;101553.91;;;11.28;77.05
83363;BME280;73275;50.882;5.984;2024-01-30T11:43:52;101552.78;;;11.29;77.19
83363;BME280;73275;50.882;5.984;2024-01-30T11:46:18;101561.38;;;11.38;77.34
83363;BME280;73275;50.882;5.984;2024-01-30T11:48:43;101549.25;;;11.40;76.85
83363;BME280;73275;50.882;5.984;2024-01-30T11:51:09;101545.59;;;11.48;76.61
83363;BME280;73275;50.882;5.984;2024-01-30T11:53:34;101545.19;;;11.46;76.64
83363;BME280;73275;50.882;5.984;2024-01-30T11:56:00;101550.94;;;11.48;76.92
83363;BME280;73275;50.882;5.984;2024-01-30T11:58:25;101546.31;;;11.45;77.56
83363;BME280;73275;50.882;5.984;2024-01-30T12:00:55;101551.19;;;11.43;77.68
83363;BME280;73275;50.882;5.984;2024-01-30T12:03:21;101541.66;;;11.42;77.78
83363;BME280;73275;50.882;5.984;2024-01-30T12:05:55;101541.25;;;11.40;77.85
83363;BME280;73275;50.882;5.984;2024-01-30T12:08:20;101525.56;;;11.39;78.13
83363;BME280;73275;50.882;5.984;2024-01-30T12:10:45;101538.22;;;11.42;78.16
83363;BME280;73275;50.882;5.984;2024-01-30T12:13:11;101527.56;;;11.42;77.77
83363;BME280;73275;50.882;5.984;2024-01-30T12:15:37;101538.66;;;11.44;77.89
83363;BME280;73275;50.882;5.984;2024-01-30T12:18:06;101544.41;;;11.46;78.10
83363;BME280;73275;50.882;5.984;2024-01-30T12:20:32;101537.59;;;11.48;78.12
83363;BME280;73275;50.882;5.984;2024-01-30T12:22:57;101536.03;;;11.47;78.17
83363;BME280;73275;50.882;5.984;2024-01-30T12:25:23;101540.19;;;11.45;77.91
83363;BME280;73275;50.882;5.984;2024-01-30T12:27:50;101542.00;;;11.41;77.94
83363;BME280;73275;50.882;5.984;2024-01-30T12:30:16;101534.84;;;11.45;78.59
83363;BME280;73275;50.882;5.984;2024-01-30T12:32:46;101547.00;;;11.42;78.36
83363;BME280;73275;50.882;5.984;2024-01-30T12:35:17;101540.53;;;11.43;78.29
83363;BME280;73275;50.882;5.984;2024-01-30T12:37:43;101538.13;;;11.38;78.53
83363;BME280;73275;50.882;5.984;2024-01-30T12:40:10;101538.06;;;11.35;79.17
83363;BME280;73275;50.882;5.984;2024-01-30T12:42:37;101549.09;;;11.33;79.44
83363;BME280;73275;50.882;5.984;2024-01-30T12:45:03;101556.66;;;11.31;79.63
83363;BME280;73275;50.882;5.984;2024-01-30T12:47:30;101552.84;;;11.32;79.52
83363;BME280;73275;50.882;5.984;2024-01-30T12:49:55;101558.47;;;11.27;79.13
83363;BME280;73275;50.882;5.984;2024-01-30T12:52:21;101567.31;;;11.31;79.59
83363;BME280;73275;50.882;5.984;2024-01-30T12:54:48;101560.53;;;11.34;79.69
83363;BME280;73275;50.882;5.984;2024-01-30T12:57:13;101570.44;;;11.33;79.15
83363;BME280;73275;50.882;5.984;2024-01-30T12:59:39;101562.78;;;11.32;79.61
83363;BME280;73275;50.882;5.984;2024-01-30T13:02:05;101562.50;;;11.37;79.16
83363;BME280;73275;50.882;5.984;2024-01-30T13:04:31;101563.19;;;11.34;79.12
83363;BME280;73275;50.882;5.984;2024-01-30T13:06:57;101572.56;;;11.43;79.43
83363;BME280;73275;50.882;5.984;2024-01-30T13:09:23;101573.75;;;11.46;78.59
83363;BME280;73275;50.882;5.984;2024-01-30T13:11:49;101575.59;;;11.42;79.08
83363;BME280;73275;50.882;5.984;2024-01-30T13:14:14;101574.88;;;11.45;79.33
83363;BME280;73275;50.882;5.984;2024-01-30T13:16:39;101567.59;;;11.42;79.15
83363;BME280;73275;50.882;5.984;2024-01-30T13:19:05;101569.81;;;11.40;79.18
83363;BME280;73275;50.882;5.984;2024-01-30T13:21:31;101578.94;;;11.39;79.44
83363;BME280;73275;50.882;5.984;2024-01-30T13:23:56;101572.81;;;11.38;79.40
83363;BME280;73275;50.882;5.984;2024-01-30T13:26:22;101583.50;;;11.38;79.54
83363;BME280;73275;50.882;5.984;2024-01-30T13:28:47;101587.66;;;11.36;79.72
83363;BME280;73275;50.882;5.984;2024-01-30T13:31:14;101580.94;;;11.26;80.03
83363;BME280;73275;50.882;5.984;2024-01-30T13:33:40;101588.06;;;11.22;80.01
83363;BME280;73275;50.882;5.984;2024-01-30T13:36:09;101587.31;;;11.22;80.11
83363;BME280;73275;50.882;5.984;2024-01-30T13:38:35;101591.44;;;11.19;80.04
83363;BME280;73275;50.882;5.984;2024-01-30T13:41:01;101595.66;;;11.20;79.42
83363;BME280;73275;50.882;5.984;2024-01-30T13:43:26;101587.91;;;11.15;79.82
83363;BME280;73275;50.882;5.984;2024-01-30T13:45:52;101592.38;;;11.11;80.18
83363;BME280;73275;50.882;5.984;2024-01-30T13:48:18;101597.38;;;11.13;80.25
83363;BME280;73275;50.882;5.984;2024-01-30T13:50:43;101604.88;;;11.07;80.65
83363;BME280;73275;50.882;5.984;2024-01-30T13:53:09;101602.88;;;11.04;80.60
83363;BME280;73275;50.882;5.984;2024-01-30T13:55:35;101601.94;;;11.12;80.70
83363;BME280;73275;50.882;5.984;2024-01-30T13:58:01;101608.72;;;10.94;81.32
83363;BME280;73275;50.882;5.984;2024-01-30T14:00:29;101610.78;;;11.01;81.19
83363;BME280;73275;50.882;5.984;2024-01-30T14:02:54;101602.44;;;11.02;81.51
83363;BME280;73275;50.882;5.984;2024-01-30T14:05:21;101605.88;;;11.03;81.22
83363;BME280;73275;50.882;5.984;2024-01-30T14:07:51;101596.78;;;11.04;80.79